Retreat, Indiana
Current Conditions -  °F | °C
As of 10:33 AM on Friday 19 Dec 2014 (Local Time) from KIMS Reporting Station
Overcast Overcast  
Wind Chill: 28°   Ceiling: 1400
Heat Index: 28°   Visibility: 10mi
Dew Point: 23°   Wind: 0mph
Humidity: 80%   Direction: NA
Pressure: 30.33"   Gusts: NA
Location:  38.8084°N, 85.8627°W
Report Text: KIMS 191533Z AUTO 00000KT 10SM OVC014 M02/M05 A3033 RMK AO1
Loading
Personal Weather Stations






























Interactive Weather Map New forecast layout! Learn more

10-Day Weather Forecast

Advertisements
Track Severe Weather on mobile